createdAt,value
2018-04-30T00:00:51.621Z,41.70
2018-04-30T00:03:19.997Z,34.80
2018-04-30T00:05:48.395Z,39.13
2018-04-30T00:08:16.809Z,39.40
2018-04-30T00:10:45.211Z,42.40
2018-04-30T00:13:13.804Z,37.20
2018-04-30T00:15:42.149Z,39.75
2018-04-30T00:18:10.542Z,39.22
2018-04-30T00:20:39.890Z,36.38
2018-04-30T00:23:08.345Z,39.88
2018-04-30T00:25:36.686Z,33.60
2018-04-30T00:28:05.140Z,41.67
2018-04-30T00:30:33.631Z,44.50
2018-04-30T00:33:01.982Z,39.20
2018-04-30T00:35:30.985Z,39.38
2018-04-30T00:37:59.354Z,43.92
2018-04-30T00:40:27.708Z,49.92
2018-04-30T00:42:56.916Z,49.35
2018-04-30T00:45:25.284Z,42.40
2018-04-30T00:47:53.644Z,45.63
2018-04-30T00:50:23.300Z,44.67
2018-04-30T00:52:51.663Z,44.72
2018-04-30T00:55:20.006Z,39.35
2018-04-30T00:57:48.836Z,42.47
2018-04-30T01:00:17.208Z,42.30
2018-04-30T01:02:45.614Z,41.35
2018-04-30T01:05:14.013Z,40.58
2018-04-30T01:07:42.391Z,54.72
2018-04-30T01:10:10.814Z,38.75
2018-04-30T01:12:39.186Z,41.25
2018-04-30T01:15:07.531Z,42.25
2018-04-30T01:17:35.891Z,42.15
2018-04-30T01:20:04.528Z,53.80
2018-04-30T01:22:32.869Z,51.95
2018-04-30T01:25:01.238Z,41.60
2018-04-30T01:27:29.617Z,45.25
2018-04-30T01:29:57.982Z,41.22
2018-04-30T01:32:26.340Z,49.50
2018-04-30T01:34:54.732Z,44.15
2018-04-30T01:37:23.083Z,43.63
2018-04-30T01:39:51.441Z,39.78
2018-04-30T01:42:19.855Z,33.92
2018-04-30T01:44:48.230Z,44.65
2018-04-30T01:47:16.586Z,39.25
2018-04-30T01:49:45.841Z,46.10
2018-04-30T01:52:14.261Z,49.58
2018-04-30T01:54:42.631Z,50.10
2018-04-30T01:57:11.564Z,38.53
2018-04-30T01:59:39.930Z,40.55
2018-04-30T02:02:08.371Z,51.97
2018-04-30T02:04:36.777Z,29.20
2018-04-30T02:07:05.108Z,35.78
2018-04-30T02:09:34.477Z,40.63
2018-04-30T02:12:02.895Z,42.90
2018-04-30T02:14:31.235Z,46.08
2018-04-30T02:16:59.604Z,56.83
2018-04-30T02:19:27.948Z,37.80
2018-04-30T02:21:56.296Z,39.95
2018-04-30T02:24:24.621Z,46.33
2018-04-30T02:26:53.050Z,41.88
2018-04-30T02:29:21.366Z,42.78
2018-04-30T02:31:49.710Z,38.05
2018-04-30T02:34:18.116Z,53.65
2018-04-30T02:36:46.582Z,33.20
2018-04-30T02:39:14.980Z,31.67
2018-04-30T02:41:44.153Z,48.80
2018-04-30T02:44:12.550Z,39.22
2018-04-30T02:46:40.938Z,39.60
2018-04-30T02:49:09.345Z,38.50
2018-04-30T02:51:37.897Z,39.20
2018-04-30T02:54:06.268Z,38.80
2018-04-30T02:56:35.002Z,45.75
2018-04-30T02:59:03.410Z,32.35
2018-04-30T03:01:32.787Z,48.67
2018-04-30T03:04:02.557Z,45.22
2018-04-30T03:06:30.894Z,51.85
2018-04-30T03:08:59.230Z,42.85
2018-04-30T03:11:28.009Z,53.60
2018-04-30T03:13:56.402Z,51.15
2018-04-30T03:16:24.742Z,48.17
2018-04-30T03:18:53.118Z,59.33
2018-04-30T03:21:22.458Z,50.08
2018-04-30T03:23:50.810Z,45.25
2018-04-30T03:26:19.870Z,52.20
2018-04-30T03:28:48.251Z,56.67
2018-04-30T03:31:16.623Z,59.42
2018-04-30T03:33:45.374Z,52.00
2018-04-30T03:36:13.718Z,61.25
2018-04-30T03:38:42.137Z,60.55
2018-04-30T03:41:10.625Z,58.38
2018-04-30T03:43:39.061Z,58.97
2018-04-30T03:46:07.370Z,61.55
2018-04-30T03:48:35.866Z,59.95
2018-04-30T03:51:04.227Z,54.20
2018-04-30T03:53:32.576Z,61.08
2018-04-30T03:56:01.768Z,63.58
2018-04-30T03:58:30.167Z,57.75
2018-04-30T04:01:10.444Z,65.50
2018-04-30T04:03:50.748Z,56.25
2018-04-30T04:06:31.241Z,50.92
2018-04-30T04:09:00.404Z,49.42
2018-04-30T04:11:28.748Z,58.28
2018-04-30T04:13:57.176Z,66.62
2018-04-30T04:16:25.610Z,67.10
2018-04-30T04:18:53.967Z,59.97
2018-04-30T04:21:22.414Z,72.00
2018-04-30T04:23:51.821Z,63.13
2018-04-30T04:26:20.192Z,54.50
2018-04-30T04:28:48.698Z,60.45
2018-04-30T04:31:17.989Z,69.80
2018-04-30T04:33:46.357Z,68.10
2018-04-30T04:36:15.443Z,49.97
2018-04-30T04:38:43.881Z,49.17
2018-04-30T04:41:12.269Z,47.90
2018-04-30T04:43:40.676Z,49.95
2018-04-30T04:46:09.025Z,60.35
2018-04-30T04:48:37.380Z,49.70
2018-04-30T04:51:06.446Z,47.30
2018-04-30T04:53:34.784Z,51.50
2018-04-30T04:56:03.975Z,47.25
2018-04-30T04:58:32.326Z,44.63
2018-04-30T05:01:00.697Z,49.13
2018-04-30T05:03:29.052Z,37.35
2018-04-30T05:05:57.457Z,37.47
2018-04-30T05:08:25.906Z,34.33
2018-04-30T05:10:54.279Z,35.97
2018-04-30T05:13:23.161Z,41.35
2018-04-30T05:15:51.479Z,35.13
2018-04-30T05:18:19.938Z,42.03
2018-04-30T05:20:48.779Z,26.57
2018-04-30T05:23:17.132Z,40.10
2018-04-30T05:25:45.508Z,31.77
2018-04-30T05:28:14.741Z,31.57
2018-04-30T05:30:43.137Z,36.23
2018-04-30T05:33:11.681Z,32.70
2018-04-30T05:35:41.293Z,26.80
2018-04-30T05:38:09.775Z,23.17
2018-04-30T05:40:39.082Z,27.83
2018-04-30T05:43:08.988Z,49.10
2018-04-30T05:45:37.430Z,26.80
2018-04-30T05:48:05.856Z,35.40
2018-04-30T05:50:34.292Z,23.10
2018-04-30T05:53:02.654Z,32.90
2018-04-30T05:55:30.997Z,35.10
2018-04-30T05:57:59.823Z,23.40
2018-04-30T06:00:28.292Z,24.90
2018-04-30T06:02:56.558Z,33.27
2018-04-30T06:05:24.955Z,24.77
2018-04-30T06:07:53.355Z,28.53
2018-04-30T06:10:21.716Z,26.67
2018-04-30T06:12:50.170Z,29.23
2018-04-30T06:15:18.618Z,20.47
2018-04-30T06:17:47.003Z,27.90
2018-04-30T06:20:16.211Z,27.40
2018-04-30T06:22:44.649Z,37.53
2018-04-30T06:25:13.070Z,27.87
2018-04-30T06:27:42.202Z,21.90
2018-04-30T06:30:10.568Z,35.10
2018-04-30T06:32:38.974Z,27.97
2018-04-30T06:35:07.421Z,35.57
2018-04-30T06:37:35.755Z,27.43
2018-04-30T06:40:04.269Z,40.13
2018-04-30T06:42:33.060Z,42.77
2018-04-30T06:45:01.416Z,26.60
2018-04-30T06:47:29.780Z,24.30
2018-04-30T06:49:58.891Z,25.93
2018-04-30T06:52:27.233Z,32.20
2018-04-30T06:57:47.729Z,23.47
2018-04-30T07:00:16.161Z,24.80
2018-04-30T07:02:44.509Z,18.80
2018-04-30T07:05:13.740Z,27.37
2018-04-30T07:07:42.125Z,34.33
2018-04-30T07:10:10.636Z,23.13
2018-04-30T07:12:39.087Z,31.00
2018-04-30T07:15:07.439Z,25.60
2018-04-30T07:17:35.864Z,31.10
2018-04-30T07:20:04.940Z,19.60
2018-04-30T07:22:33.206Z,27.87
2018-04-30T07:25:01.550Z,26.03
2018-04-30T07:27:30.196Z,24.43
2018-04-30T07:29:58.673Z,23.87
2018-04-30T07:32:26.983Z,25.67
2018-04-30T07:34:55.350Z,23.50
2018-04-30T07:37:23.731Z,30.70
2018-04-30T07:39:52.088Z,47.63
2018-04-30T07:42:20.469Z,27.87
2018-04-30T07:44:48.856Z,22.23
2018-04-30T07:47:17.272Z,25.43
2018-04-30T07:49:45.851Z,22.70
2018-04-30T07:52:14.195Z,26.37
2018-04-30T07:54:42.621Z,27.33
2018-04-30T07:57:11.212Z,21.63
2018-04-30T07:59:39.569Z,22.20
2018-04-30T08:02:07.930Z,31.73
2018-04-30T08:04:36.433Z,32.57
2018-04-30T08:07:04.811Z,25.20
2018-04-30T08:09:33.168Z,39.10
2018-04-30T08:12:01.544Z,32.60
2018-04-30T08:14:29.890Z,33.20
2018-04-30T08:16:58.228Z,26.23
2018-04-30T08:19:26.951Z,34.17
2018-04-30T08:21:55.309Z,28.83
2018-04-30T08:24:23.640Z,34.60
2018-04-30T08:26:52.927Z,32.40
2018-04-30T08:29:21.250Z,21.30
2018-04-30T08:31:49.685Z,29.17
2018-04-30T08:34:18.864Z,22.00
2018-04-30T08:36:47.273Z,33.77
2018-04-30T08:39:15.627Z,28.17
2018-04-30T08:41:44.068Z,30.43
2018-04-30T08:44:13.533Z,29.97
2018-04-30T08:46:42.016Z,23.53
2018-04-30T08:49:10.410Z,23.97
2018-04-30T08:51:38.847Z,27.20
2018-04-30T08:54:07.559Z,33.47
2018-04-30T08:56:35.986Z,24.87
2018-04-30T08:59:04.519Z,27.43
2018-04-30T09:01:32.853Z,30.53
2018-04-30T09:04:01.389Z,29.13
2018-04-30T09:06:29.737Z,23.13
2018-04-30T09:08:58.095Z,35.07
2018-04-30T09:11:26.457Z,20.60
2018-04-30T09:13:54.805Z,25.60
2018-04-30T09:16:23.150Z,33.43
2018-04-30T09:18:51.538Z,25.73
2018-04-30T09:21:19.928Z,28.93
2018-04-30T09:23:49.293Z,26.57
2018-04-30T09:26:18.865Z,25.80
2018-04-30T09:28:47.228Z,25.67
2018-04-30T09:31:15.616Z,34.03
2018-04-30T09:33:44.076Z,31.37
2018-04-30T09:36:12.501Z,23.27
2018-04-30T09:38:40.890Z,30.03
2018-04-30T09:41:10.135Z,26.80
2018-04-30T09:43:38.529Z,30.73
2018-04-30T09:46:06.882Z,25.30
2018-04-30T09:48:35.329Z,30.17
2018-04-30T09:51:03.737Z,35.67
2018-04-30T09:53:32.112Z,32.17
2018-04-30T09:56:00.461Z,34.30
2018-04-30T09:58:28.789Z,26.20
2018-04-30T10:00:57.153Z,26.30
2018-04-30T10:03:26.104Z,42.37
2018-04-30T10:05:54.486Z,34.90
2018-04-30T10:08:22.863Z,41.20
2018-04-30T10:10:51.869Z,42.10
2018-04-30T10:13:20.202Z,35.57
2018-04-30T10:15:49.277Z,54.27
2018-04-30T10:18:18.218Z,35.00
2018-04-30T10:20:46.594Z,39.93
2018-04-30T10:23:14.967Z,39.53
2018-04-30T10:25:45.100Z,35.47
2018-04-30T10:28:13.499Z,40.77
2018-04-30T10:30:41.887Z,53.83
2018-04-30T10:33:10.276Z,54.60
2018-04-30T10:35:38.604Z,43.17
2018-04-30T10:38:07.015Z,39.23
2018-04-30T10:40:36.184Z,35.17
2018-04-30T10:43:04.539Z,42.83
2018-04-30T10:45:32.886Z,47.93
2018-04-30T10:48:01.475Z,44.47
2018-04-30T10:50:29.815Z,50.47
2018-04-30T10:52:58.135Z,39.50
2018-04-30T10:55:26.751Z,38.47
2018-04-30T10:57:55.094Z,38.43
2018-04-30T11:00:23.431Z,52.80
2018-04-30T11:02:51.822Z,45.90
2018-04-30T11:05:20.189Z,59.00
2018-04-30T11:07:48.554Z,40.93
2018-04-30T11:10:18.033Z,48.90
2018-04-30T11:12:46.435Z,40.73
2018-04-30T11:15:14.807Z,37.90
2018-04-30T11:17:43.455Z,50.40
2018-04-30T11:20:11.779Z,31.90
2018-04-30T11:22:40.341Z,43.00
2018-04-30T11:25:09.639Z,35.50
2018-04-30T11:27:38.027Z,39.13
2018-04-30T11:30:06.414Z,37.50
2018-04-30T11:32:34.878Z,48.10
2018-04-30T11:35:03.221Z,40.40
2018-04-30T11:37:31.553Z,30.80
2018-04-30T11:40:00.037Z,47.10
2018-04-30T11:42:28.361Z,43.43
2018-04-30T11:44:56.745Z,40.07
2018-04-30T11:47:25.485Z,55.87
2018-04-30T11:49:53.874Z,50.10
2018-04-30T11:52:22.205Z,38.60
2018-04-30T11:54:50.723Z,44.63
2018-04-30T11:57:19.195Z,38.30
2018-04-30T11:59:47.570Z,47.30
2018-04-30T12:02:16.050Z,47.37
2018-04-30T12:04:44.408Z,44.30
2018-04-30T12:07:12.874Z,43.43
2018-04-30T12:09:41.448Z,44.27
2018-04-30T12:12:09.841Z,39.87
2018-04-30T12:14:38.164Z,48.97
2018-04-30T12:17:06.636Z,51.23
2018-04-30T12:19:35.095Z,37.63
2018-04-30T12:22:03.509Z,52.07
2018-04-30T12:24:33.372Z,45.83
2018-04-30T12:27:01.747Z,44.47
2018-04-30T12:29:30.106Z,46.07
2018-04-30T12:31:58.473Z,37.67
2018-04-30T12:34:26.811Z,41.93
2018-04-30T12:36:55.132Z,48.83
2018-04-30T12:39:23.672Z,44.90
2018-04-30T12:41:52.064Z,39.40
2018-04-30T12:44:20.420Z,43.53
2018-04-30T12:46:48.933Z,40.20
2018-04-30T12:49:17.351Z,49.37
2018-04-30T12:51:45.791Z,52.93
2018-04-30T12:54:14.751Z,67.70
2018-04-30T12:56:43.162Z,49.27
2018-04-30T12:59:11.563Z,64.43
2018-04-30T13:01:40.742Z,50.60
2018-04-30T13:04:09.151Z,50.13
2018-04-30T13:06:37.527Z,57.67
2018-04-30T13:09:05.898Z,60.10
2018-04-30T13:11:34.288Z,48.90
2018-04-30T13:14:02.649Z,44.53
2018-04-30T13:16:31.006Z,51.13
2018-04-30T13:18:59.389Z,44.73
2018-04-30T13:21:27.705Z,43.77
2018-04-30T13:23:56.094Z,34.70
2018-04-30T13:26:24.525Z,36.13
2018-04-30T13:28:52.953Z,31.17
2018-04-30T13:31:22.149Z,34.13
2018-04-30T13:33:50.559Z,31.90
2018-04-30T13:36:19.043Z,33.93
2018-04-30T13:38:47.955Z,32.67
2018-04-30T13:41:16.317Z,36.30
2018-04-30T13:43:44.755Z,26.50
2018-04-30T13:46:13.242Z,25.00
2018-04-30T13:48:41.626Z,28.93
2018-04-30T13:51:10.033Z,29.73
2018-04-30T13:53:39.363Z,25.97
2018-04-30T13:56:07.741Z,25.30
2018-04-30T13:58:36.121Z,24.77
2018-04-30T14:01:04.510Z,14.67
2018-04-30T14:03:32.886Z,15.80
2018-04-30T14:06:01.258Z,14.13
2018-04-30T14:08:29.637Z,18.87
2018-04-30T14:10:58.009Z,24.23
2018-04-30T14:13:26.391Z,14.50
2018-04-30T14:15:55.034Z,16.73
2018-04-30T14:18:23.386Z,12.80
2018-04-30T14:20:51.714Z,19.70
2018-04-30T14:23:21.693Z,16.93
2018-04-30T14:25:50.155Z,13.37
2018-04-30T14:28:18.513Z,14.97
2018-04-30T14:30:46.971Z,17.97
2018-04-30T14:33:15.415Z,16.23
2018-04-30T14:35:43.854Z,18.03
2018-04-30T14:38:12.274Z,15.93
2018-04-30T14:40:40.655Z,16.40
2018-04-30T14:43:09.136Z,13.47
2018-04-30T14:45:38.126Z,18.77
2018-04-30T14:48:06.511Z,16.30
2018-04-30T14:50:34.845Z,20.20
2018-04-30T14:53:03.249Z,19.10
2018-04-30T14:55:31.619Z,15.40
2018-04-30T14:57:59.938Z,17.30
2018-04-30T15:00:29.209Z,16.87
2018-04-30T15:02:57.953Z,19.80
2018-04-30T15:05:26.405Z,22.30
2018-04-30T15:07:55.555Z,15.80
2018-04-30T15:10:24.002Z,10.10
2018-04-30T15:12:52.420Z,10.13
2018-04-30T15:15:20.909Z,16.77
2018-04-30T15:17:49.332Z,11.97
2018-04-30T15:20:17.705Z,12.70
2018-04-30T15:22:47.152Z,7.50
2018-04-30T15:25:15.530Z,9.17
2018-04-30T15:27:43.978Z,9.50
2018-04-30T15:30:14.266Z,15.83
2018-04-30T15:32:44.318Z,8.03
2018-04-30T15:35:13.919Z,6.40
2018-04-30T15:37:43.396Z,6.60
2018-04-30T15:40:12.074Z,6.93
2018-04-30T15:42:42.100Z,6.83
2018-04-30T15:45:12.930Z,7.00
2018-04-30T15:47:42.952Z,10.70
2018-04-30T15:50:15.338Z,9.83
2018-04-30T15:52:44.303Z,5.93
2018-04-30T15:55:12.715Z,6.47
2018-04-30T15:57:41.104Z,6.57
2018-04-30T16:00:09.591Z,8.73
2018-04-30T16:02:37.970Z,8.63
2018-04-30T16:05:08.273Z,9.87
2018-04-30T16:07:36.621Z,4.33
2018-04-30T16:10:04.938Z,4.40
2018-04-30T16:12:33.511Z,4.40
2018-04-30T16:15:01.963Z,8.67
2018-04-30T16:17:30.329Z,4.27
2018-04-30T16:19:58.720Z,5.47
2018-04-30T16:22:27.076Z,5.50
2018-04-30T16:24:55.499Z,4.57
2018-04-30T16:27:24.495Z,6.27
2018-04-30T16:29:52.809Z,8.53
2018-04-30T16:32:21.164Z,7.27
2018-04-30T16:34:49.637Z,8.33
2018-04-30T16:37:18.327Z,7.17
2018-04-30T16:39:46.780Z,6.20
2018-04-30T16:42:16.754Z,6.43
2018-04-30T16:44:46.234Z,9.87
2018-04-30T16:47:14.696Z,12.03
2018-04-30T16:49:43.097Z,7.60
2018-04-30T16:52:11.632Z,8.20
2018-04-30T16:54:40.048Z,8.80
2018-04-30T16:57:08.616Z,8.03
2018-04-30T16:59:36.976Z,6.40
2018-04-30T17:02:05.362Z,9.07
2018-04-30T17:04:34.833Z,16.83
2018-04-30T17:07:03.266Z,8.10
2018-04-30T17:09:31.589Z,7.10
2018-04-30T17:12:00.038Z,7.03
2018-04-30T17:14:28.382Z,9.03
2018-04-30T17:16:56.749Z,6.27
2018-04-30T17:19:25.651Z,12.40
2018-04-30T17:21:54.036Z,12.20
2018-04-30T17:24:22.566Z,7.47
2018-04-30T17:26:50.956Z,15.80
2018-04-30T17:29:19.671Z,13.30
2018-04-30T17:31:48.279Z,8.50
2018-04-30T17:34:17.144Z,8.80
2018-04-30T17:36:45.802Z,8.50
2018-04-30T17:39:14.296Z,14.30
2018-04-30T17:41:42.796Z,13.00
2018-04-30T17:44:12.308Z,12.23
2018-04-30T17:46:41.357Z,20.87
2018-04-30T17:49:10.760Z,12.57
2018-04-30T17:51:40.035Z,16.77
2018-04-30T17:54:09.025Z,9.90
2018-04-30T17:56:37.468Z,22.20
2018-04-30T17:59:05.930Z,17.83
2018-04-30T18:01:35.637Z,8.00
2018-04-30T18:04:04.540Z,11.47
2018-04-30T18:06:32.886Z,9.07
2018-04-30T18:09:01.213Z,8.13
2018-04-30T18:11:29.802Z,9.50
2018-04-30T18:13:58.247Z,9.60
2018-04-30T18:16:26.676Z,13.40
2018-04-30T18:18:55.041Z,11.23
2018-04-30T18:21:23.515Z,7.30
2018-04-30T18:23:52.019Z,6.50
2018-04-30T18:26:20.633Z,8.97
2018-04-30T18:28:49.064Z,11.40
2018-04-30T18:31:17.610Z,10.40
2018-04-30T18:33:49.060Z,11.20
2018-04-30T18:36:17.749Z,9.73
2018-04-30T18:38:46.453Z,16.20
2018-04-30T18:41:15.439Z,20.33
2018-04-30T18:43:44.257Z,6.40
2018-04-30T18:46:13.491Z,7.00
2018-04-30T18:48:43.020Z,13.40
2018-04-30T18:51:11.541Z,15.97
2018-04-30T18:53:40.135Z,7.13
2018-04-30T18:56:09.874Z,21.00
2018-04-30T18:58:38.532Z,5.90
2018-04-30T19:01:07.116Z,7.10
2018-04-30T19:03:36.002Z,24.77
2018-04-30T19:06:04.410Z,8.50
2018-04-30T19:08:32.749Z,44.17
2018-04-30T19:11:03.533Z,10.33
2018-04-30T19:13:32.208Z,5.67
2018-04-30T19:16:00.680Z,5.83
2018-04-30T19:18:29.677Z,2.40
2018-04-30T19:20:58.009Z,2.00
2018-04-30T19:23:26.432Z,3.43
2018-04-30T19:25:54.868Z,1.63
2018-04-30T19:28:26.677Z,1.53
2018-04-30T19:30:55.477Z,3.03
2018-04-30T19:33:23.829Z,8.00
2018-04-30T19:35:52.415Z,4.87
2018-04-30T19:38:22.837Z,2.00
2018-04-30T19:40:53.943Z,1.50
2018-04-30T19:43:22.426Z,2.53
2018-04-30T19:45:50.990Z,1.93
2018-04-30T19:48:19.545Z,9.17
2018-04-30T19:50:48.649Z,3.20
2018-04-30T19:53:17.729Z,2.30
2018-04-30T19:55:46.208Z,4.00
2018-04-30T19:58:14.720Z,1.93
2018-04-30T20:00:44.092Z,3.50
2018-04-30T20:03:12.573Z,4.17
2018-04-30T20:05:41.728Z,4.90
2018-04-30T20:08:10.209Z,4.93
2018-04-30T20:10:38.683Z,2.10
2018-04-30T20:13:07.062Z,2.97
2018-04-30T20:15:35.412Z,1.93
2018-04-30T20:18:03.764Z,2.80
2018-04-30T20:20:32.210Z,4.20
2018-04-30T20:23:00.640Z,2.70
2018-04-30T20:25:29.067Z,2.77
2018-04-30T20:27:57.516Z,4.77
2018-04-30T20:30:25.870Z,2.20
2018-04-30T20:32:54.220Z,3.50
2018-04-30T20:35:22.617Z,6.20
2018-04-30T20:37:51.475Z,4.00
2018-04-30T20:40:19.812Z,4.70
2018-04-30T20:42:48.287Z,2.80
2018-04-30T20:45:17.059Z,8.23
2018-04-30T20:47:45.478Z,3.00
2018-04-30T20:50:14.141Z,3.10
2018-04-30T20:52:42.663Z,4.73
2018-04-30T20:55:11.145Z,5.97
2018-04-30T20:57:39.693Z,2.40
2018-04-30T21:00:09.674Z,3.27
2018-04-30T21:02:37.997Z,2.90
2018-04-30T21:05:06.432Z,2.27
2018-04-30T21:07:35.609Z,3.63
2018-04-30T21:10:03.967Z,2.83
2018-04-30T21:12:32.288Z,6.97
2018-04-30T21:15:00.686Z,3.53
2018-04-30T21:17:29.170Z,2.40
2018-04-30T21:19:57.401Z,2.63
2018-04-30T21:22:26.592Z,2.00
2018-04-30T21:24:54.957Z,3.23
2018-04-30T21:27:23.356Z,4.00
2018-04-30T21:29:51.855Z,5.73
2018-04-30T21:32:20.261Z,3.50
2018-04-30T21:34:48.623Z,2.27
2018-04-30T21:37:17.282Z,4.60
2018-04-30T21:39:45.824Z,1.20
2018-04-30T21:42:14.142Z,1.63
2018-04-30T21:44:43.430Z,21.50
2018-04-30T21:47:11.886Z,3.57
2018-04-30T21:49:40.560Z,2.63
2018-04-30T21:52:10.996Z,6.17
2018-04-30T21:54:39.659Z,6.00
2018-04-30T21:57:08.193Z,2.00
2018-04-30T21:59:36.633Z,5.43
2018-04-30T22:02:04.949Z,2.70
2018-04-30T22:04:36.586Z,2.33
2018-04-30T22:07:05.019Z,3.20
2018-04-30T22:09:33.427Z,3.27
2018-04-30T22:12:01.935Z,8.33
2018-04-30T22:14:30.259Z,3.73
2018-04-30T22:16:58.673Z,1.70
2018-04-30T22:19:26.999Z,1.20
2018-04-30T22:21:55.354Z,2.30
2018-04-30T22:24:23.697Z,5.20
2018-04-30T22:26:52.039Z,2.67
2018-04-30T22:29:20.465Z,2.03
2018-04-30T22:31:50.109Z,3.90
2018-04-30T22:34:18.542Z,1.57
2018-04-30T22:36:47.049Z,4.20
2018-04-30T22:39:15.347Z,1.13
2018-04-30T22:41:43.709Z,1.70
2018-04-30T22:44:14.563Z,4.80
2018-04-30T22:46:42.932Z,4.63
2018-04-30T22:49:11.579Z,2.17
2018-04-30T22:51:40.151Z,1.80
2018-04-30T22:54:08.549Z,5.10
2018-04-30T22:56:36.897Z,1.43
2018-04-30T22:59:05.237Z,2.30
2018-04-30T23:01:33.749Z,6.53
2018-04-30T23:04:02.557Z,3.17
2018-04-30T23:06:31.673Z,2.90
2018-04-30T23:08:59.995Z,6.77
2018-04-30T23:11:28.380Z,3.20
2018-04-30T23:13:56.737Z,1.70
2018-04-30T23:16:25.143Z,6.63
2018-04-30T23:18:53.446Z,1.50
2018-04-30T23:21:22.616Z,1.20
2018-04-30T23:23:50.996Z,1.53
2018-04-30T23:26:19.338Z,5.03
2018-04-30T23:28:47.851Z,3.50
2018-04-30T23:31:16.258Z,4.17
2018-04-30T23:33:44.645Z,2.00
2018-04-30T23:36:13.275Z,1.53
2018-04-30T23:38:41.977Z,3.10
2018-04-30T23:41:10.334Z,2.10
2018-04-30T23:43:39.140Z,2.00
2018-04-30T23:46:07.496Z,2.40
2018-04-30T23:48:35.828Z,1.87
2018-04-30T23:51:05.237Z,3.27
2018-04-30T23:53:33.582Z,4.23
2018-04-30T23:56:01.936Z,1.33
2018-04-30T23:58:30.332Z,1.53
